sensor_id;sensor_type;location;lat;lon;timestamp;pressure;altitude;pressure_sealevel;temperature;humidity
79577;BME280;69045;48.136;11.386;2024-03-29T00:00:50;94034.53;;;6.90;60.54
79577;BME280;69045;48.136;11.386;2024-03-29T00:03:16;94024.78;;;6.74;61.50
79577;BME280;69045;48.136;11.386;2024-03-29T00:05:42;94017.47;;;6.94;61.12
79577;BME280;69045;48.136;11.386;2024-03-29T00:08:08;94010.53;;;7.23;59.99
79577;BME280;69045;48.136;11.386;2024-03-29T00:10:34;93996.97;;;7.21;59.46
79577;BME280;69045;48.136;11.386;2024-03-29T00:12:59;94006.59;;;7.21;59.34
79577;BME280;69045;48.136;11.386;2024-03-29T00:15:25;93996.97;;;6.74;61.53
79577;BME280;69045;48.136;11.386;2024-03-29T00:17:51;93995.81;;;6.82;61.09
79577;BME280;69045;48.136;11.386;2024-03-29T00:20:17;94000.38;;;6.98;60.66
79577;BME280;69045;48.136;11.386;2024-03-29T00:22:43;94003.31;;;6.78;61.32
79577;BME280;69045;48.136;11.386;2024-03-29T00:25:09;93983.94;;;6.51;62.21
79577;BME280;69045;48.136;11.386;2024-03-29T00:27:35;93979.66;;;6.68;61.48
79577;BME280;69045;48.136;11.386;2024-03-29T00:30:02;93976.81;;;6.81;61.39
79577;BME280;69045;48.136;11.386;2024-03-29T00:32:28;93972.97;;;7.19;60.54
79577;BME280;69045;48.136;11.386;2024-03-29T00:34:54;93972.34;;;7.52;59.31
79577;BME280;69045;48.136;11.386;2024-03-29T00:37:21;93974.06;;;7.47;58.50
79577;BME280;69045;48.136;11.386;2024-03-29T00:39:48;93981.19;;;7.39;58.79
79577;BME280;69045;48.136;11.386;2024-03-29T00:42:14;93971.47;;;7.35;59.13
79577;BME280;69045;48.136;11.386;2024-03-29T00:44:41;93973.56;;;7.50;58.86
79577;BME280;69045;48.136;11.386;2024-03-29T00:47:07;93973.28;;;7.75;58.05
79577;BME280;69045;48.136;11.386;2024-03-29T00:49:34;93976.69;;;7.75;57.69
79577;BME280;69045;48.136;11.386;2024-03-29T00:52:00;93976.97;;;7.90;57.19
79577;BME280;69045;48.136;11.386;2024-03-29T00:54:26;93974.63;;;8.06;57.06
79577;BME280;69045;48.136;11.386;2024-03-29T00:56:52;93974.81;;;8.16;56.65
79577;BME280;69045;48.136;11.386;2024-03-29T00:59:19;93970.78;;;8.08;56.57
79577;BME280;69045;48.136;11.386;2024-03-29T01:01:46;93966.00;;;8.05;56.85
79577;BME280;69045;48.136;11.386;2024-03-29T01:04:12;93958.97;;;8.06;56.79
79577;BME280;69045;48.136;11.386;2024-03-29T01:06:38;93948.31;;;7.79;57.43
79577;BME280;69045;48.136;11.386;2024-03-29T01:09:06;93944.66;;;7.63;57.69
79577;BME280;69045;48.136;11.386;2024-03-29T01:11:32;93941.03;;;7.64;57.61
79577;BME280;69045;48.136;11.386;2024-03-29T01:13:58;93930.91;;;7.39;58.28
79577;BME280;69045;48.136;11.386;2024-03-29T01:16:24;93923.56;;;7.36;58.48
79577;BME280;69045;48.136;11.386;2024-03-29T01:18:50;93916.91;;;7.28;58.52
79577;BME280;69045;48.136;11.386;2024-03-29T01:21:18;93906.84;;;7.20;58.98
79577;BME280;69045;48.136;11.386;2024-03-29T01:23:44;93902.19;;;7.22;58.76
79577;BME280;69045;48.136;11.386;2024-03-29T01:26:10;93891.06;;;7.38;58.27
79577;BME280;69045;48.136;11.386;2024-03-29T01:28:38;93884.75;;;7.23;58.37
79577;BME280;69045;48.136;11.386;2024-03-29T01:31:05;93879.38;;;7.41;59.01
79577;BME280;69045;48.136;11.386;2024-03-29T01:33:31;93878.03;;;7.38;58.04
79577;BME280;69045;48.136;11.386;2024-03-29T01:36:04;93863.19;;;7.39;57.78
79577;BME280;69045;48.136;11.386;2024-03-29T01:38:30;93857.00;;;7.28;58.28
79577;BME280;69045;48.136;11.386;2024-03-29T01:40:56;93844.03;;;7.45;58.01
79577;BME280;69045;48.136;11.386;2024-03-29T01:43:23;93847.97;;;7.48;57.96
79577;BME280;69045;48.136;11.386;2024-03-29T01:45:53;93859.88;;;7.44;57.96
79577;BME280;69045;48.136;11.386;2024-03-29T01:48:20;93852.34;;;7.30;57.87
79577;BME280;69045;48.136;11.386;2024-03-29T01:50:47;93861.41;;;7.28;58.06
79577;BME280;69045;48.136;11.386;2024-03-29T01:53:16;93870.13;;;7.33;57.80
79577;BME280;69045;48.136;11.386;2024-03-29T01:55:44;93865.22;;;7.37;57.66
79577;BME280;69045;48.136;11.386;2024-03-29T01:58:11;93858.44;;;7.36;57.69
79577;BME280;69045;48.136;11.386;2024-03-29T02:00:57;93858.53;;;7.41;57.82
79577;BME280;69045;48.136;11.386;2024-03-29T02:03:23;93871.19;;;7.49;57.56
79577;BME280;69045;48.136;11.386;2024-03-29T02:05:50;93867.38;;;7.40;57.88
79577;BME280;69045;48.136;11.386;2024-03-29T02:08:16;93856.84;;;7.35;58.05
79577;BME280;69045;48.136;11.386;2024-03-29T02:10:44;93851.66;;;7.35;58.08
79577;BME280;69045;48.136;11.386;2024-03-29T02:13:11;93846.81;;;6.98;59.13
79577;BME280;69045;48.136;11.386;2024-03-29T02:15:39;93854.25;;;7.06;59.18
79577;BME280;69045;48.136;11.386;2024-03-29T02:18:06;93859.03;;;6.98;59.40
79577;BME280;69045;48.136;11.386;2024-03-29T02:20:33;93850.75;;;7.01;59.60
79577;BME280;69045;48.136;11.386;2024-03-29T02:23:06;93856.59;;;7.08;59.01
79577;BME280;69045;48.136;11.386;2024-03-29T02:25:33;93855.59;;;7.09;59.01
79577;BME280;69045;48.136;11.386;2024-03-29T02:28:01;93850.94;;;7.11;59.03
79577;BME280;69045;48.136;11.386;2024-03-29T02:30:29;93860.91;;;7.14;59.43
79577;BME280;69045;48.136;11.386;2024-03-29T02:32:57;93857.50;;;7.14;59.08
79577;BME280;69045;48.136;11.386;2024-03-29T02:35:23;93847.47;;;7.05;59.33
79577;BME280;69045;48.136;11.386;2024-03-29T02:37:50;93846.56;;;7.00;59.76
79577;BME280;69045;48.136;11.386;2024-03-29T02:40:15;93843.16;;;6.99;60.02
79577;BME280;69045;48.136;11.386;2024-03-29T02:42:41;93844.19;;;6.98;60.04
79577;BME280;69045;48.136;11.386;2024-03-29T02:45:08;93838.09;;;6.93;60.23
79577;BME280;69045;48.136;11.386;2024-03-29T02:47:34;93831.34;;;6.80;60.79
79577;BME280;69045;48.136;11.386;2024-03-29T02:50:00;93840.84;;;6.74;60.81
79577;BME280;69045;48.136;11.386;2024-03-29T02:52:25;93841.41;;;6.76;61.30
79577;BME280;69045;48.136;11.386;2024-03-29T02:54:51;93846.94;;;6.80;60.94
79577;BME280;69045;48.136;11.386;2024-03-29T02:57:17;93845.16;;;6.69;61.05
79577;BME280;69045;48.136;11.386;2024-03-29T02:59:43;93846.16;;;6.79;61.11
79577;BME280;69045;48.136;11.386;2024-03-29T03:02:09;93846.03;;;6.86;60.92
79577;BME280;69045;48.136;11.386;2024-03-29T03:04:35;93851.69;;;6.83;60.62
79577;BME280;69045;48.136;11.386;2024-03-29T03:07:00;93845.16;;;6.69;61.25
79577;BME280;69045;48.136;11.386;2024-03-29T03:09:45;93832.97;;;6.57;61.18
79577;BME280;69045;48.136;11.386;2024-03-29T03:12:30;93838.16;;;6.46;61.77
79577;BME280;69045;48.136;11.386;2024-03-29T03:14:59;93825.84;;;6.53;61.49
79577;BME280;69045;48.136;11.386;2024-03-29T03:17:26;93827.09;;;6.50;61.67
79577;BME280;69045;48.136;11.386;2024-03-29T03:19:52;93823.34;;;6.46;61.89
79577;BME280;69045;48.136;11.386;2024-03-29T03:22:18;93820.88;;;6.51;61.92
79577;BME280;69045;48.136;11.386;2024-03-29T03:24:44;93825.72;;;6.60;61.63
79577;BME280;69045;48.136;11.386;2024-03-29T03:27:10;93813.38;;;6.43;62.24
79577;BME280;69045;48.136;11.386;2024-03-29T03:29:36;93821.31;;;6.48;62.30
79577;BME280;69045;48.136;11.386;2024-03-29T03:32:02;93810.53;;;6.56;61.73
79577;BME280;69045;48.136;11.386;2024-03-29T03:34:28;93811.56;;;6.55;61.82
79577;BME280;69045;48.136;11.386;2024-03-29T03:36:54;93809.34;;;6.36;62.42
79577;BME280;69045;48.136;11.386;2024-03-29T03:39:20;93805.50;;;5.91;63.72
79577;BME280;69045;48.136;11.386;2024-03-29T03:41:46;93798.66;;;5.67;64.54
79577;BME280;69045;48.136;11.386;2024-03-29T03:44:12;93791.38;;;5.99;63.92
79577;BME280;69045;48.136;11.386;2024-03-29T03:46:38;93786.50;;;6.14;63.79
79577;BME280;69045;48.136;11.386;2024-03-29T03:49:04;93804.81;;;6.08;63.50
79577;BME280;69045;48.136;11.386;2024-03-29T03:51:30;93813.19;;;6.21;63.32
79577;BME280;69045;48.136;11.386;2024-03-29T03:53:56;93795.88;;;6.39;62.58
79577;BME280;69045;48.136;11.386;2024-03-29T03:56:22;93798.13;;;6.59;61.78
79577;BME280;69045;48.136;11.386;2024-03-29T03:58:48;93796.19;;;6.66;61.60
79577;BME280;69045;48.136;11.386;2024-03-29T04:01:14;93791.34;;;6.57;61.99
79577;BME280;69045;48.136;11.386;2024-03-29T04:03:40;93796.88;;;6.49;61.94
79577;BME280;69045;48.136;11.386;2024-03-29T04:06:06;93812.47;;;6.61;61.67
79577;BME280;69045;48.136;11.386;2024-03-29T04:08:32;93806.50;;;6.49;62.14
79577;BME280;69045;48.136;11.386;2024-03-29T04:11:05;93801.09;;;6.50;61.83
79577;BME280;69045;48.136;11.386;2024-03-29T04:13:31;93798.34;;;6.57;61.71
79577;BME280;69045;48.136;11.386;2024-03-29T04:16:06;93791.63;;;6.73;61.23
79577;BME280;69045;48.136;11.386;2024-03-29T04:18:33;93782.97;;;6.55;61.28
79577;BME280;69045;48.136;11.386;2024-03-29T04:21:03;93775.81;;;6.63;61.20
79577;BME280;69045;48.136;11.386;2024-03-29T04:23:30;93772.13;;;6.59;61.01
79577;BME280;69045;48.136;11.386;2024-03-29T04:25:57;93778.34;;;6.57;61.70
79577;BME280;69045;48.136;11.386;2024-03-29T04:28:24;93763.47;;;6.70;61.22
79577;BME280;69045;48.136;11.386;2024-03-29T04:30:58;93765.81;;;6.83;60.68
79577;BME280;69045;48.136;11.386;2024-03-29T04:33:25;93753.31;;;6.56;61.30
79577;BME280;69045;48.136;11.386;2024-03-29T04:35:59;93747.06;;;6.69;60.83
79577;BME280;69045;48.136;11.386;2024-03-29T04:38:26;93741.19;;;6.74;61.10
79577;BME280;69045;48.136;11.386;2024-03-29T04:40:55;93745.59;;;6.73;61.00
79577;BME280;69045;48.136;11.386;2024-03-29T04:43:23;93753.44;;;6.62;61.26
79577;BME280;69045;48.136;11.386;2024-03-29T04:45:49;93768.63;;;6.53;61.60
79577;BME280;69045;48.136;11.386;2024-03-29T04:48:16;93774.28;;;6.38;62.25
79577;BME280;69045;48.136;11.386;2024-03-29T04:50:42;93784.75;;;6.67;61.47
79577;BME280;69045;48.136;11.386;2024-03-29T04:53:08;93788.66;;;6.93;60.79
79577;BME280;69045;48.136;11.386;2024-03-29T04:55:34;93793.44;;;7.13;60.09
79577;BME280;69045;48.136;11.386;2024-03-29T04:58:01;93787.75;;;7.16;59.77
79577;BME280;69045;48.136;11.386;2024-03-29T05:00:27;93788.13;;;6.79;60.84
79577;BME280;69045;48.136;11.386;2024-03-29T05:02:53;93791.63;;;6.84;60.78
79577;BME280;69045;48.136;11.386;2024-03-29T05:05:19;93795.00;;;6.85;60.60
79577;BME280;69045;48.136;11.386;2024-03-29T05:07:45;93792.28;;;6.92;60.91
79577;BME280;69045;48.136;11.386;2024-03-29T05:10:10;93796.56;;;6.98;60.50
79577;BME280;69045;48.136;11.386;2024-03-29T05:12:36;93779.63;;;7.12;59.76
79577;BME280;69045;48.136;11.386;2024-03-29T05:15:02;93772.03;;;7.10;60.20
79577;BME280;69045;48.136;11.386;2024-03-29T05:17:28;93773.78;;;7.05;60.13
79577;BME280;69045;48.136;11.386;2024-03-29T05:19:55;93767.44;;;7.01;60.57
79577;BME280;69045;48.136;11.386;2024-03-29T05:22:21;93761.75;;;7.04;60.51
79577;BME280;69045;48.136;11.386;2024-03-29T05:24:47;93751.50;;;7.26;59.88
79577;BME280;69045;48.136;11.386;2024-03-29T05:27:13;93741.38;;;7.13;60.21
79577;BME280;69045;48.136;11.386;2024-03-29T05:29:39;93724.31;;;7.05;60.92
79577;BME280;69045;48.136;11.386;2024-03-29T05:32:07;93707.50;;;6.67;62.09
79577;BME280;69045;48.136;11.386;2024-03-29T05:34:33;93695.50;;;6.66;61.70
79577;BME280;69045;48.136;11.386;2024-03-29T05:36:59;93693.69;;;6.95;61.06
79577;BME280;69045;48.136;11.386;2024-03-29T05:39:25;93696.00;;;7.08;60.82
79577;BME280;69045;48.136;11.386;2024-03-29T05:41:51;93701.28;;;7.14;60.88
79577;BME280;69045;48.136;11.386;2024-03-29T05:44:17;93702.63;;;7.16;60.85
79577;BME280;69045;48.136;11.386;2024-03-29T05:46:43;93704.13;;;7.29;60.17
79577;BME280;69045;48.136;11.386;2024-03-29T05:49:09;93709.69;;;6.87;61.08
79577;BME280;69045;48.136;11.386;2024-03-29T05:51:34;93716.75;;;7.20;60.56
79577;BME280;69045;48.136;11.386;2024-03-29T05:54:01;93724.44;;;7.60;59.27
79577;BME280;69045;48.136;11.386;2024-03-29T05:56:29;93721.69;;;7.67;59.17
79577;BME280;69045;48.136;11.386;2024-03-29T05:58:55;93728.50;;;7.90;58.67
79577;BME280;69045;48.136;11.386;2024-03-29T06:01:21;93732.81;;;8.18;56.99
79577;BME280;69045;48.136;11.386;2024-03-29T06:03:49;93738.41;;;8.43;56.48
79577;BME280;69045;48.136;11.386;2024-03-29T06:06:20;93745.44;;;8.43;55.72
79577;BME280;69045;48.136;11.386;2024-03-29T06:08:50;93745.00;;;8.73;55.15
79577;BME280;69045;48.136;11.386;2024-03-29T06:11:16;93751.22;;;8.94;55.58
79577;BME280;69045;48.136;11.386;2024-03-29T06:13:42;93755.94;;;9.19;54.21
79577;BME280;69045;48.136;11.386;2024-03-29T06:16:21;93743.63;;;9.73;53.82
79577;BME280;69045;48.136;11.386;2024-03-29T06:19:05;93758.19;;;10.33;51.45
79577;BME280;69045;48.136;11.386;2024-03-29T06:21:31;93758.66;;;10.83;50.87
79577;BME280;69045;48.136;11.386;2024-03-29T06:24:08;93771.09;;;11.13;49.87
79577;BME280;69045;48.136;11.386;2024-03-29T06:26:38;93771.63;;;11.20;49.63
79577;BME280;69045;48.136;11.386;2024-03-29T06:29:04;93766.16;;;11.42;48.96
79577;BME280;69045;48.136;11.386;2024-03-29T06:31:30;93756.19;;;11.34;49.15
79577;BME280;69045;48.136;11.386;2024-03-29T06:33:59;93753.59;;;11.54;49.41
79577;BME280;69045;48.136;11.386;2024-03-29T06:36:25;93764.63;;;11.66;48.48
79577;BME280;69045;48.136;11.386;2024-03-29T06:38:54;93748.91;;;11.97;48.90
79577;BME280;69045;48.136;11.386;2024-03-29T06:41:20;93742.84;;;12.27;47.72
79577;BME280;69045;48.136;11.386;2024-03-29T06:43:46;93746.66;;;12.70;46.95
79577;BME280;69045;48.136;11.386;2024-03-29T06:46:14;93745.72;;;13.10;45.81
79577;BME280;69045;48.136;11.386;2024-03-29T06:48:41;93743.38;;;13.53;44.98
79577;BME280;69045;48.136;11.386;2024-03-29T06:51:07;93752.03;;;13.93;43.99
79577;BME280;69045;48.136;11.386;2024-03-29T06:53:32;93755.72;;;14.26;44.09
79577;BME280;69045;48.136;11.386;2024-03-29T06:56:00;93745.94;;;14.27;43.19
79577;BME280;69045;48.136;11.386;2024-03-29T06:58:27;93745.97;;;14.80;42.58
79577;BME280;69045;48.136;11.386;2024-03-29T07:00:52;93734.72;;;15.73;40.64
79577;BME280;69045;48.136;11.386;2024-03-29T07:03:19;93739.81;;;16.49;38.72
79577;BME280;69045;48.136;11.386;2024-03-29T07:05:47;93752.09;;;17.63;37.67
79577;BME280;69045;48.136;11.386;2024-03-29T07:08:13;93735.28;;;18.35;37.59
79577;BME280;69045;48.136;11.386;2024-03-29T07:10:40;93741.16;;;20.29;33.37
79577;BME280;69045;48.136;11.386;2024-03-29T07:13:06;93741.31;;;21.77;31.43
79577;BME280;69045;48.136;11.386;2024-03-29T07:15:32;93742.06;;;22.52;30.47
79577;BME280;69045;48.136;11.386;2024-03-29T07:18:00;93742.06;;;22.98;28.77
79577;BME280;69045;48.136;11.386;2024-03-29T07:20:26;93728.81;;;23.26;29.95
79577;BME280;69045;48.136;11.386;2024-03-29T07:22:52;93729.38;;;23.84;30.40
79577;BME280;69045;48.136;11.386;2024-03-29T07:25:18;93714.44;;;24.67;29.01
79577;BME280;69045;48.136;11.386;2024-03-29T07:27:44;93719.63;;;25.23;26.57
79577;BME280;69045;48.136;11.386;2024-03-29T07:30:11;93724.56;;;25.91;25.25
79577;BME280;69045;48.136;11.386;2024-03-29T07:32:37;93729.94;;;25.91;25.90
79577;BME280;69045;48.136;11.386;2024-03-29T07:35:03;93732.91;;;25.70;24.48
79577;BME280;69045;48.136;11.386;2024-03-29T07:37:30;93747.69;;;24.97;25.27
79577;BME280;69045;48.136;11.386;2024-03-29T07:39:55;93745.94;;;24.58;25.97
79577;BME280;69045;48.136;11.386;2024-03-29T07:42:21;93755.63;;;23.41;26.64
79577;BME280;69045;48.136;11.386;2024-03-29T07:44:48;93751.28;;;24.58;26.01
79577;BME280;69045;48.136;11.386;2024-03-29T07:47:13;93755.66;;;25.41;24.74
79577;BME280;69045;48.136;11.386;2024-03-29T07:49:40;93774.91;;;25.47;22.63
79577;BME280;69045;48.136;11.386;2024-03-29T07:52:06;93760.09;;;25.34;24.44
79577;BME280;69045;48.136;11.386;2024-03-29T07:54:34;93756.84;;;25.95;22.63
79577;BME280;69045;48.136;11.386;2024-03-29T07:57:00;93761.81;;;27.16;21.39
79577;BME280;69045;48.136;11.386;2024-03-29T07:59:28;93764.06;;;27.10;21.66
79577;BME280;69045;48.136;11.386;2024-03-29T08:01:53;93774.19;;;26.98;22.40
79577;BME280;69045;48.136;11.386;2024-03-29T08:04:21;93774.13;;;26.75;22.48
79577;BME280;69045;48.136;11.386;2024-03-29T08:06:47;93769.03;;;27.61;21.78
79577;BME280;69045;48.136;11.386;2024-03-29T08:09:13;93780.41;;;26.59;21.23
79577;BME280;69045;48.136;11.386;2024-03-29T08:11:41;93772.94;;;26.49;22.04
79577;BME280;69045;48.136;11.386;2024-03-29T08:14:07;93774.53;;;25.80;22.84
79577;BME280;69045;48.136;11.386;2024-03-29T08:16:34;93762.00;;;24.58;23.71
79577;BME280;69045;48.136;11.386;2024-03-29T08:19:00;93762.34;;;24.28;24.13
79577;BME280;69045;48.136;11.386;2024-03-29T08:21:26;93762.53;;;24.07;23.57
79577;BME280;69045;48.136;11.386;2024-03-29T08:23:53;93753.59;;;24.87;23.34
79577;BME280;69045;48.136;11.386;2024-03-29T08:26:21;93752.41;;;24.29;23.75
79577;BME280;69045;48.136;11.386;2024-03-29T08:28:47;93760.56;;;24.76;23.47
79577;BME280;69045;48.136;11.386;2024-03-29T08:31:13;93749.19;;;24.35;22.87
79577;BME280;69045;48.136;11.386;2024-03-29T08:33:39;93743.31;;;23.77;25.35
79577;BME280;69045;48.136;11.386;2024-03-29T08:36:06;93750.81;;;24.84;24.26
79577;BME280;69045;48.136;11.386;2024-03-29T08:38:34;93746.31;;;25.35;24.05
79577;BME280;69045;48.136;11.386;2024-03-29T08:41:00;93740.34;;;24.63;24.36
79577;BME280;69045;48.136;11.386;2024-03-29T08:43:26;93746.16;;;23.96;25.58
79577;BME280;69045;48.136;11.386;2024-03-29T08:45:52;93739.97;;;22.82;26.08
79577;BME280;69045;48.136;11.386;2024-03-29T08:48:18;93743.19;;;22.51;27.65
79577;BME280;69045;48.136;11.386;2024-03-29T08:50:44;93754.53;;;21.44;28.36
79577;BME280;69045;48.136;11.386;2024-03-29T08:53:10;93753.09;;;21.46;28.26
79577;BME280;69045;48.136;11.386;2024-03-29T08:55:36;93745.28;;;20.82;28.90
79577;BME280;69045;48.136;11.386;2024-03-29T08:58:03;93752.25;;;20.31;29.93
79577;BME280;69045;48.136;11.386;2024-03-29T09:00:30;93750.91;;;20.08;30.41
79577;BME280;69045;48.136;11.386;2024-03-29T09:02:57;93750.22;;;20.37;29.86
79577;BME280;69045;48.136;11.386;2024-03-29T09:05:23;93741.66;;;20.23;30.29
79577;BME280;69045;48.136;11.386;2024-03-29T09:07:49;93741.09;;;20.64;30.38
79577;BME280;69045;48.136;11.386;2024-03-29T09:10:16;93753.06;;;20.23;30.73
79577;BME280;69045;48.136;11.386;2024-03-29T09:12:42;93747.09;;;20.35;31.63
79577;BME280;69045;48.136;11.386;2024-03-29T09:15:08;93755.75;;;20.79;30.63
79577;BME280;69045;48.136;11.386;2024-03-29T09:17:39;93743.63;;;20.98;29.78
79577;BME280;69045;48.136;11.386;2024-03-29T09:20:06;93737.41;;;20.94;29.46
79577;BME280;69045;48.136;11.386;2024-03-29T09:22:32;93732.91;;;20.78;31.15
79577;BME280;69045;48.136;11.386;2024-03-29T09:24:58;93732.91;;;20.78;31.15
79577;BME280;69045;48.136;11.386;2024-03-29T09:27:26;93745.66;;;20.63;30.21
79577;BME280;69045;48.136;11.386;2024-03-29T09:29:55;93747.72;;;20.40;30.57
79577;BME280;69045;48.136;11.386;2024-03-29T09:32:22;93745.28;;;20.82;30.26
79577;BME280;69045;48.136;11.386;2024-03-29T09:34:48;93759.31;;;20.36;30.64
79577;BME280;69045;48.136;11.386;2024-03-29T09:37:14;93754.31;;;20.26;30.74
79577;BME280;69045;48.136;11.386;2024-03-29T09:39:41;93747.63;;;19.94;31.50
79577;BME280;69045;48.136;11.386;2024-03-29T09:42:07;93753.53;;;20.16;31.73
79577;BME280;69045;48.136;11.386;2024-03-29T09:44:35;93758.53;;;20.18;32.00
79577;BME280;69045;48.136;11.386;2024-03-29T09:47:03;93756.03;;;20.48;30.66
79577;BME280;69045;48.136;11.386;2024-03-29T09:49:33;93747.41;;;20.51;30.43
79577;BME280;69045;48.136;11.386;2024-03-29T09:51:59;93744.22;;;20.66;30.50
79577;BME280;69045;48.136;11.386;2024-03-29T09:54:29;93753.50;;;20.51;31.77
79577;BME280;69045;48.136;11.386;2024-03-29T09:56:57;93755.31;;;20.77;31.02
79577;BME280;69045;48.136;11.386;2024-03-29T09:59:26;93754.56;;;20.59;30.49
79577;BME280;69045;48.136;11.386;2024-03-29T10:01:55;93760.09;;;20.36;30.39
79577;BME280;69045;48.136;11.386;2024-03-29T10:04:23;93773.25;;;20.24;30.46
79577;BME280;69045;48.136;11.386;2024-03-29T10:06:51;93759.19;;;19.89;30.90
79577;BME280;69045;48.136;11.386;2024-03-29T10:09:17;93754.34;;;20.00;31.88
79577;BME280;69045;48.136;11.386;2024-03-29T10:11:44;93760.69;;;20.59;31.82
79577;BME280;69045;48.136;11.386;2024-03-29T10:14:11;93751.00;;;20.93;32.26
79577;BME280;69045;48.136;11.386;2024-03-29T10:16:36;93751.16;;;21.35;31.12
79577;BME280;69045;48.136;11.386;2024-03-29T10:19:03;93754.34;;;21.28;31.99
79577;BME280;69045;48.136;11.386;2024-03-29T10:21:30;93752.22;;;21.42;31.34
79577;BME280;69045;48.136;11.386;2024-03-29T10:23:56;93750.44;;;21.46;30.84
79577;BME280;69045;48.136;11.386;2024-03-29T10:26:22;93751.28;;;21.38;29.90
79577;BME280;69045;48.136;11.386;2024-03-29T10:28:48;93752.44;;;20.90;29.89
79577;BME280;69045;48.136;11.386;2024-03-29T10:31:14;93745.81;;;20.67;31.39
79577;BME280;69045;48.136;11.386;2024-03-29T10:33:44;93733.16;;;20.93;31.26
79577;BME280;69045;48.136;11.386;2024-03-29T10:36:10;93745.59;;;21.48;30.81
79577;BME280;69045;48.136;11.386;2024-03-29T10:38:38;93741.94;;;21.74;29.24
79577;BME280;69045;48.136;11.386;2024-03-29T10:41:04;93747.25;;;21.23;29.41
79577;BME280;69045;48.136;11.386;2024-03-29T10:43:33;93739.78;;;21.46;29.58
79577;BME280;69045;48.136;11.386;2024-03-29T10:46:03;93729.00;;;21.43;29.55
79577;BME280;69045;48.136;11.386;2024-03-29T10:48:31;93726.41;;;21.25;29.92
79577;BME280;69045;48.136;11.386;2024-03-29T10:51:02;93722.84;;;21.72;29.61
79577;BME280;69045;48.136;11.386;2024-03-29T10:53:29;93715.72;;;21.97;29.06
79577;BME280;69045;48.136;11.386;2024-03-29T10:55:57;93711.84;;;22.15;29.41
79577;BME280;69045;48.136;11.386;2024-03-29T10:58:32;93721.59;;;22.11;29.32
79577;BME280;69045;48.136;11.386;2024-03-29T11:01:01;93705.53;;;21.57;30.00
79577;BME280;69045;48.136;11.386;2024-03-29T11:03:50;93709.13;;;21.61;30.23
79577;BME280;69045;48.136;11.386;2024-03-29T11:06:25;93706.13;;;21.84;29.63
79577;BME280;69045;48.136;11.386;2024-03-29T11:08:54;93718.88;;;21.78;29.63
79577;BME280;69045;48.136;11.386;2024-03-29T11:11:22;93718.75;;;21.74;29.75
79577;BME280;69045;48.136;11.386;2024-03-29T11:14:10;93702.28;;;21.31;28.97
79577;BME280;69045;48.136;11.386;2024-03-29T11:16:40;93716.72;;;21.50;30.07
79577;BME280;69045;48.136;11.386;2024-03-29T11:19:15;93710.16;;;21.69;29.74
79577;BME280;69045;48.136;11.386;2024-03-29T11:21:41;93705.66;;;21.10;30.72
79577;BME280;69045;48.136;11.386;2024-03-29T11:24:10;93710.69;;;21.41;30.01
79577;BME280;69045;48.136;11.386;2024-03-29T11:26:36;93695.25;;;21.89;29.79
79577;BME280;69045;48.136;11.386;2024-03-29T11:29:02;93702.97;;;22.23;29.87
79577;BME280;69045;48.136;11.386;2024-03-29T11:31:28;93694.50;;;22.21;28.82
79577;BME280;69045;48.136;11.386;2024-03-29T11:33:58;93722.31;;;21.37;28.71
79577;BME280;69045;48.136;11.386;2024-03-29T11:36:28;93713.84;;;21.97;28.84
79577;BME280;69045;48.136;11.386;2024-03-29T11:38:56;93705.50;;;21.99;29.38
79577;BME280;69045;48.136;11.386;2024-03-29T11:41:28;93701.84;;;22.24;28.49
79577;BME280;69045;48.136;11.386;2024-03-29T11:43:56;93706.94;;;22.75;29.15
79577;BME280;69045;48.136;11.386;2024-03-29T11:46:24;93699.53;;;23.17;28.19
79577;BME280;69045;48.136;11.386;2024-03-29T11:48:50;93698.13;;;23.48;28.20
79577;BME280;69045;48.136;11.386;2024-03-29T11:51:19;93689.19;;;23.68;27.27
79577;BME280;69045;48.136;11.386;2024-03-29T11:53:48;93699.13;;;23.43;27.30
79577;BME280;69045;48.136;11.386;2024-03-29T11:56:16;93709.31;;;23.13;28.31
79577;BME280;69045;48.136;11.386;2024-03-29T11:58:42;93695.75;;;23.06;28.22
79577;BME280;69045;48.136;11.386;2024-03-29T12:01:08;93694.63;;;23.19;28.21
79577;BME280;69045;48.136;11.386;2024-03-29T12:03:41;93683.81;;;23.28;28.50
79577;BME280;69045;48.136;11.386;2024-03-29T12:06:08;93681.34;;;23.23;27.73
79577;BME280;69045;48.136;11.386;2024-03-29T12:08:39;93679.03;;;23.09;28.24
79577;BME280;69045;48.136;11.386;2024-03-29T12:11:05;93680.22;;;23.36;28.03
79577;BME280;69045;48.136;11.386;2024-03-29T12:13:32;93681.09;;;23.64;27.95
79577;BME280;69045;48.136;11.386;2024-03-29T12:15:58;93668.63;;;23.84;27.47
79577;BME280;69045;48.136;11.386;2024-03-29T12:18:25;93662.03;;;23.66;27.56
79577;BME280;69045;48.136;11.386;2024-03-29T12:20:55;93664.22;;;23.76;28.25
79577;BME280;69045;48.136;11.386;2024-03-29T12:23:21;93651.09;;;23.71;27.13
79577;BME280;69045;48.136;11.386;2024-03-29T12:25:49;93647.59;;;23.83;27.75
79577;BME280;69045;48.136;11.386;2024-03-29T12:28:16;93644.28;;;24.02;27.24
79577;BME280;69045;48.136;11.386;2024-03-29T12:30:44;93650.50;;;24.06;28.09
79577;BME280;69045;48.136;11.386;2024-03-29T12:33:15;93642.09;;;23.91;26.82
79577;BME280;69045;48.136;11.386;2024-03-29T12:35:43;93638.59;;;23.75;27.73
79577;BME280;69045;48.136;11.386;2024-03-29T12:38:15;93637.25;;;23.97;26.78
79577;BME280;69045;48.136;11.386;2024-03-29T12:40:42;93635.72;;;23.96;28.15
79577;BME280;69045;48.136;11.386;2024-03-29T12:43:15;93642.50;;;24.21;28.05
79577;BME280;69045;48.136;11.386;2024-03-29T12:45:43;93629.59;;;24.55;27.12
79577;BME280;69045;48.136;11.386;2024-03-29T12:48:15;93612.91;;;24.62;26.28
79577;BME280;69045;48.136;11.386;2024-03-29T12:50:43;93622.41;;;24.43;26.57
79577;BME280;69045;48.136;11.386;2024-03-29T12:53:11;93623.97;;;24.44;26.56
79577;BME280;69045;48.136;11.386;2024-03-29T12:55:40;93613.59;;;24.43;26.82